Time;durP1;ratioP1;P1;durP2;ratioP2;P2;SDS_P1;SDS_P2;PMS_P1;PMS_P2;Temp;Humidity;BMP_temperature;BMP_pressure;BME280_temperature;BME280_humidity;BME280_pressure;Samples;Min_cycle;Max_cycle;Signal;HPM_P1;HPM_P2
2024/02/07 00:00:45;;;;;;;3.83;1.73;;;10.40;99.90;;;;;;4987065;28;20207;-62
2024/02/07 00:03:12;;;;;;;2.60;1.70;;;10.40;99.90;;;;;;4983924;28;20247;-62
2024/02/07 00:05:40;;;;;;;3.90;1.37;;;10.30;99.90;;;;;;4983404;28;20259;-61
2024/02/07 00:08:07;;;;;;;2.80;1.77;;;10.30;99.90;;;;;;4984888;28;20236;-61
2024/02/07 00:10:33;;;;;;;2.93;1.60;;;10.40;99.90;;;;;;4986518;28;20780;-61
2024/02/07 00:13:00;;;;;;;3.30;1.63;;;10.50;99.90;;;;;;4985385;28;20223;-62
2024/02/07 00:15:26;;;;;;;3.03;1.70;;;10.60;99.90;;;;;;4983277;28;20209;-61
2024/02/07 00:17:53;;;;;;;5.00;1.83;;;10.60;99.90;;;;;;4982486;28;20236;-62
2024/02/07 00:20:20;;;;;;;4.00;1.83;;;10.60;99.90;;;;;;4986347;28;20230;-61
2024/02/07 00:22:48;;;;;;;2.97;1.83;;;10.60;99.90;;;;;;4986259;28;20207;-61
2024/02/07 00:25:14;;;;;;;2.70;1.70;;;10.60;99.90;;;;;;4983267;28;20666;-61
2024/02/07 00:27:41;;;;;;;2.50;1.60;;;10.50;99.90;;;;;;4982724;28;20224;-62
2024/02/07 00:30:10;;;;;;;3.47;1.60;;;10.50;99.90;;;;;;4984955;28;20207;-63
2024/02/07 00:32:36;;;;;;;2.17;1.40;;;10.40;99.90;;;;;;4986073;28;20646;-63
2024/02/07 00:35:03;;;;;;;4.20;2.00;;;10.40;99.90;;;;;;4984622;28;20212;-63
2024/02/07 00:37:30;;;;;;;3.53;1.63;;;10.40;99.90;;;;;;4982534;28;20228;-63
2024/02/07 00:39:58;;;;;;;1.87;1.60;;;10.50;99.90;;;;;;4983134;28;20212;-63
2024/02/07 00:42:25;;;;;;;2.47;1.63;;;10.50;99.90;;;;;;4986146;28;20200;-62
2024/02/07 00:44:51;;;;;;;3.40;1.80;;;10.50;99.90;;;;;;4986165;28;20212;-63
2024/02/07 00:47:18;;;;;;;5.10;1.70;;;10.40;99.90;;;;;;4985684;28;20448;-62
2024/02/07 00:49:45;;;;;;;5.27;1.90;;;10.50;99.90;;;;;;4985448;28;20665;-62
2024/02/07 00:52:12;;;;;;;5.33;1.63;;;10.40;99.90;;;;;;4982984;28;20703;-61
2024/02/07 00:54:38;;;;;;;3.77;1.87;;;10.50;99.90;;;;;;4982528;28;20262;-62
2024/02/07 00:57:06;;;;;;;3.83;1.90;;;10.40;99.90;;;;;;4983912;28;20238;-62
2024/02/07 00:59:33;;;;;;;2.83;1.57;;;10.40;99.90;;;;;;4985371;28;20689;-62
2024/02/07 01:02:00;;;;;;;2.27;1.60;;;10.50;99.90;;;;;;4984501;28;20626;-62
2024/02/07 01:04:27;;;;;;;5.13;1.60;;;10.50;99.90;;;;;;4982265;28;20201;-61
2024/02/07 01:06:54;;;;;;;3.73;1.80;;;10.50;99.90;;;;;;4982004;28;20737;-61
2024/02/07 01:09:21;;;;;;;3.03;1.60;;;10.40;99.90;;;;;;4985141;28;20696;-61
2024/02/07 01:11:48;;;;;;;4.97;1.70;;;10.40;99.90;;;;;;4985444;28;20219;-61
2024/02/07 01:14:16;;;;;;;2.33;1.47;;;10.40;99.90;;;;;;4982521;28;20239;-63
2024/02/07 01:16:43;;;;;;;3.07;1.73;;;10.40;99.90;;;;;;4982142;28;20237;-61
2024/02/07 01:19:10;;;;;;;3.83;1.77;;;10.40;99.90;;;;;;4983707;28;20212;-62
2024/02/07 01:21:36;;;;;;;2.23;1.80;;;10.40;99.90;;;;;;4985347;28;20227;-61
2024/02/07 01:24:05;;;;;;;3.20;1.60;;;10.50;99.90;;;;;;4984090;28;20208;-61
2024/02/07 01:26:34;;;;;;;3.10;1.70;;;10.50;99.90;;;;;;4981643;28;20769;-62
2024/02/07 01:29:01;;;;;;;4.90;1.50;;;10.50;99.90;;;;;;4981923;28;20626;-62
2024/02/07 01:31:29;;;;;;;2.60;1.40;;;10.40;99.90;;;;;;4984647;28;20269;-63
2024/02/07 01:33:56;;;;;;;2.23;1.80;;;10.40;99.90;;;;;;4984567;28;20208;-63
2024/02/07 01:36:24;;;;;;;2.73;1.70;;;10.40;99.90;;;;;;4981827;28;20224;-63
2024/02/07 01:38:51;;;;;;;4.57;1.53;;;10.40;99.90;;;;;;4981280;28;20645;-63
2024/02/07 01:41:18;;;;;;;4.97;1.60;;;10.30;99.90;;;;;;4984476;28;20278;-63
2024/02/07 01:43:45;;;;;;;4.37;1.87;;;10.40;99.90;;;;;;4985173;28;20203;-63
2024/02/07 01:46:12;;;;;;;3.20;1.67;;;10.30;99.90;;;;;;4982164;28;20238;-63
2024/02/07 01:48:42;;;;;;;3.07;1.73;;;10.30;99.90;;;;;;4981204;28;20299;-64
2024/02/07 01:51:10;;;;;;;3.20;1.60;;;10.30;99.90;;;;;;4983518;28;20215;-61
2024/02/07 01:53:38;;;;;;;4.17;1.60;;;10.40;99.90;;;;;;4984690;28;20224;-63
2024/02/07 01:56:06;;;;;;;3.60;1.53;;;10.40;99.90;;;;;;4983315;28;20229;-61
2024/02/07 01:58:35;;;;;;;3.53;1.80;;;10.50;99.90;;;;;;4981010;28;20215;-62
2024/02/07 02:01:01;;;;;;;3.57;1.70;;;10.40;99.90;;;;;;4981873;28;20204;-62
2024/02/07 02:03:28;;;;;;;3.50;1.70;;;10.50;99.90;;;;;;4984483;28;20582;-62
2024/02/07 02:05:56;;;;;;;3.37;1.70;;;10.50;99.90;;;;;;4984562;28;20258;-62
2024/02/07 02:08:24;;;;;;;2.57;1.70;;;10.50;99.90;;;;;;4981100;28;20291;-62
2024/02/07 02:10:56;;;;;;;3.47;1.80;;;10.50;99.90;;;;;;4981182;28;20220;-62
2024/02/07 02:13:23;;;;;;;3.83;1.93;;;10.60;99.90;;;;;;4980905;28;20220;-62
2024/02/07 02:15:49;;;;;;;3.37;1.50;;;10.50;99.90;;;;;;4981225;28;20212;-62
2024/02/07 02:18:16;;;;;;;3.37;1.80;;;10.50;99.90;;;;;;4983535;28;20601;-62
2024/02/07 02:20:44;;;;;;;2.07;1.40;;;10.50;99.90;;;;;;4984506;28;20208;-62
2024/02/07 02:23:32;;;;;;;5.93;1.67;;;10.50;99.90;;;;;;4982217;28;20691;-62
2024/02/07 02:26:26;;;;;;;3.60;1.60;;;10.50;99.90;;;;;;4981123;28;20254;-62
2024/02/07 02:29:04;;;;;;;5.20;1.80;;;10.60;99.90;;;;;;4984124;28;20222;-62
2024/02/07 02:31:33;;;;;;;4.50;1.77;;;10.70;99.90;;;;;;4980915;28;20208;-62
2024/02/07 02:34:01;;;;;;;3.77;1.70;;;10.60;99.90;;;;;;4981269;28;20236;-62
2024/02/07 02:36:28;;;;;;;2.20;1.73;;;10.50;99.90;;;;;;4980152;28;20239;-62
2024/02/07 02:38:55;;;;;;;2.10;1.50;;;10.50;99.90;;;;;;4980865;28;20239;-62
2024/02/07 02:41:23;;;;;;;3.63;1.73;;;10.50;99.90;;;;;;4981065;28;20212;-62
2024/02/07 02:43:49;;;;;;;3.83;1.83;;;10.50;99.90;;;;;;4984712;28;20209;-62
2024/02/07 02:46:16;;;;;;;6.10;1.60;;;10.50;99.90;;;;;;4987219;28;20281;-62
2024/02/07 02:48:44;;;;;;;3.60;1.57;;;10.40;99.90;;;;;;4987636;28;20204;-62
2024/02/07 02:51:11;;;;;;;3.10;1.70;;;10.40;99.90;;;;;;4985867;28;20746;-62
2024/02/07 02:53:38;;;;;;;4.37;1.50;;;10.30;99.90;;;;;;4984400;28;20698;-62
2024/02/07 02:56:06;;;;;;;5.27;1.77;;;10.20;99.90;;;;;;4985638;28;20209;-62
2024/02/07 02:58:34;;;;;;;3.60;1.70;;;10.10;99.90;;;;;;4987562;28;20750;-62
2024/02/07 03:01:03;;;;;;;6.90;2.13;;;10.10;99.90;;;;;;4987215;28;20339;-61
2024/02/07 03:03:31;;;;;;;3.53;1.70;;;10.10;99.90;;;;;;4984314;28;20200;-62
2024/02/07 03:05:59;;;;;;;4.20;1.80;;;10.20;99.90;;;;;;4984537;28;20208;-62
2024/02/07 03:08:42;;;;;;;2.57;1.60;;;10.10;99.90;;;;;;4987588;28;20203;-62
2024/02/07 03:11:09;;;;;;;3.57;1.77;;;10.20;99.90;;;;;;4985994;28;20204;-62
2024/02/07 03:13:37;;;;;;;2.70;1.70;;;10.30;99.90;;;;;;4984045;28;20314;-61
2024/02/07 03:16:05;;;;;;;3.87;1.90;;;10.30;99.90;;;;;;4984885;28;20214;-62
2024/02/07 03:18:33;;;;;;;1.73;1.63;;;10.30;99.90;;;;;;4987181;28;20204;-62
2024/02/07 03:21:02;;;;;;;2.87;1.60;;;10.30;99.90;;;;;;4987061;28;20218;-62
2024/02/07 03:23:29;;;;;;;2.87;1.60;;;10.30;99.90;;;;;;4984133;28;20642;-62
2024/02/07 03:25:56;;;;;;;3.37;1.60;;;10.30;99.90;;;;;;4983948;28;20263;-61
2024/02/07 03:28:22;;;;;;;1.87;1.37;;;10.30;99.90;;;;;;4986900;28;20678;-62
2024/02/07 03:30:49;;;;;;;4.27;2.00;;;10.30;99.90;;;;;;4987584;28;20207;-62
2024/02/07 03:33:17;;;;;;;3.37;2.10;;;10.30;99.90;;;;;;4984673;28;20625;-62
2024/02/07 03:35:44;;;;;;;4.40;1.63;;;10.30;99.90;;;;;;4984025;28;20293;-62
2024/02/07 03:38:13;;;;;;;3.57;1.77;;;10.30;99.90;;;;;;4985368;28;20319;-62
2024/02/07 03:40:39;;;;;;;3.80;1.70;;;10.30;99.90;;;;;;4987556;28;20234;-62
2024/02/07 03:43:06;;;;;;;2.40;1.70;;;10.20;99.90;;;;;;4985750;28;20204;-62
2024/02/07 03:45:33;;;;;;;4.53;1.60;;;10.20;99.90;;;;;;4983610;28;20299;-62
2024/02/07 03:48:00;;;;;;;4.33;2.00;;;10.30;99.90;;;;;;5068071;22;20327;-58
2024/02/07 03:50:27;;;;;;;2.80;1.73;;;10.40;99.90;;;;;;5062560;28;20559;-60
2024/02/07 03:52:55;;;;;;;2.53;1.70;;;10.30;99.90;;;;;;5061962;28;20244;-59
2024/02/07 03:55:23;;;;;;;6.00;1.97;;;10.20;99.90;;;;;;5065616;28;20209;-58
2024/02/07 03:57:50;;;;;;;3.13;1.70;;;10.20;99.90;;;;;;5065540;28;20729;-58
2024/02/07 04:00:17;;;;;;;2.30;1.47;;;10.30;99.90;;;;;;5063584;28;20201;-60
2024/02/07 04:02:47;;;;;;;2.47;2.00;;;10.30;99.90;;;;;;5062510;28;20210;-59
2024/02/07 04:05:15;;;;;;;2.27;1.57;;;10.30;99.90;;;;;;5064478;28;20206;-57
2024/02/07 04:07:42;;;;;;;6.17;2.10;;;10.30;99.90;;;;;;5065484;28;20221;-59
2024/02/07 04:10:11;;;;;;;3.63;2.20;;;10.40;99.90;;;;;;5064944;28;20247;-58
2024/02/07 05:15:36;;;;;;;4.00;1.80;;;11.00;99.90;;;;;;5064596;28;20669;-58
2024/02/07 05:18:04;;;;;;;2.87;1.50;;;11.00;99.90;;;;;;5063686;28;20708;-58
2024/02/07 05:20:31;;;;;;;4.93;3.73;;;11.00;99.90;;;;;;5060802;28;20216;-58
2024/02/07 05:22:58;;;;;;;4.73;1.87;;;11.10;99.90;;;;;;5060875;28;20264;-58
2024/02/07 05:25:25;;;;;;;2.70;1.77;;;11.10;99.90;;;;;;5064131;28;20201;-58
2024/02/07 05:27:52;;;;;;;2.53;1.47;;;11.00;99.90;;;;;;5063926;28;20635;-57
2024/02/07 05:30:18;;;;;;;6.93;4.33;;;11.00;99.90;;;;;;5061881;28;20205;-58
2024/02/07 05:32:45;;;;;;;3.93;1.73;;;11.10;99.90;;;;;;5060561;28;20282;-58
2024/02/07 05:35:13;;;;;;;3.73;1.80;;;11.00;99.90;;;;;;5062049;28;20201;-59
2024/02/07 05:37:40;;;;;;;4.20;2.20;;;11.00;99.90;;;;;;5063974;28;20278;-57
2024/02/07 05:40:08;;;;;;;3.37;1.70;;;10.90;99.90;;;;;;5063343;28;20208;-59
2024/02/07 05:42:34;;;;;;;4.20;1.50;;;10.90;99.90;;;;;;5060672;28;20206;-58
2024/02/07 05:45:01;;;;;;;2.60;1.50;;;10.90;99.90;;;;;;5060463;28;20263;-58
2024/02/07 05:47:28;;;;;;;2.70;1.50;;;10.80;99.90;;;;;;5052240;28;20229;-59
2024/02/07 05:49:54;;;;;;;1.87;1.50;;;10.80;99.90;;;;;;5060039;28;20213;-58
2024/02/07 05:52:23;;;;;;;3.90;1.60;;;10.80;99.90;;;;;;5062610;28;20625;-58
2024/02/07 05:54:50;;;;;;;3.87;2.03;;;10.80;99.90;;;;;;5063953;28;20225;-58
2024/02/07 05:57:17;;;;;;;3.83;1.63;;;10.80;99.90;;;;;;5061424;28;20717;-60
2024/02/07 05:59:43;;;;;;;2.53;1.50;;;10.90;99.90;;;;;;5060054;28;20564;-57
2024/02/07 06:02:12;;;;;;;4.63;2.70;;;10.90;99.90;;;;;;5061383;28;20259;-58
2024/02/07 06:04:39;;;;;;;5.93;2.00;;;11.00;99.90;;;;;;5063510;28;20204;-58
2024/02/07 06:07:08;;;;;;;4.13;1.80;;;11.00;99.90;;;;;;5063470;28;20252;-58
2024/02/07 06:09:36;;;;;;;3.13;1.77;;;11.00;99.90;;;;;;5060059;28;20209;-61
2024/02/07 06:12:03;;;;;;;3.77;1.90;;;11.00;99.90;;;;;;5060024;28;20210;-58
2024/02/07 06:14:31;;;;;;;4.63;2.30;;;10.90;99.90;;;;;;5063482;28;20216;-59
2024/02/07 06:16:57;;;;;;;4.73;2.17;;;10.90;99.90;;;;;;5063259;28;20263;-58
2024/02/07 06:19:24;;;;;;;2.93;1.80;;;10.90;99.90;;;;;;5060751;28;20201;-59
2024/02/07 06:21:52;;;;;;;3.13;1.83;;;10.90;99.90;;;;;;5060070;28;20206;-59
2024/02/07 06:24:18;;;;;;;4.37;2.33;;;10.80;99.90;;;;;;5062008;28;20229;-58
2024/02/07 06:26:46;;;;;;;6.43;1.97;;;10.80;99.90;;;;;;5063041;28;20281;-58
2024/02/07 06:29:13;;;;;;;5.63;2.10;;;10.80;99.90;;;;;;5061568;28;20212;-58
2024/02/07 06:31:40;;;;;;;2.40;1.80;;;10.90;99.90;;;;;;5059584;28;20209;-58
2024/02/07 06:34:06;;;;;;;5.53;2.00;;;10.80;99.90;;;;;;5060043;28;20638;-59
2024/02/07 06:36:33;;;;;;;4.47;1.90;;;10.90;99.90;;;;;;5063359;28;20270;-58
2024/02/07 06:39:00;;;;;;;6.40;1.70;;;10.80;99.90;;;;;;5063084;28;20311;-59
2024/02/07 06:41:26;;;;;;;3.00;1.60;;;10.90;99.90;;;;;;5060068;28;20202;-59
2024/02/07 06:43:54;;;;;;;8.33;2.10;;;10.90;99.90;;;;;;5059783;28;20205;-60
2024/02/07 06:46:21;;;;;;;4.50;1.97;;;11.00;99.90;;;;;;5061761;28;20205;-56
2024/02/07 06:48:48;;;;;;;3.23;1.87;;;11.00;99.90;;;;;;5062722;28;20616;-57
2024/02/07 06:51:14;;;;;;;8.00;2.07;;;11.10;99.90;;;;;;5061270;28;20624;-59
2024/02/07 06:53:41;;;;;;;3.43;1.70;;;11.00;99.90;;;;;;5059621;28;20291;-59
2024/02/07 06:56:08;;;;;;;3.93;2.00;;;11.10;99.90;;;;;;5060063;28;20217;-59
2024/02/07 06:58:35;;;;;;;2.53;1.63;;;11.10;99.90;;;;;;5062858;28;20420;-59
2024/02/07 07:01:03;;;;;;;3.23;2.37;;;11.10;99.90;;;;;;5063614;28;20209;-62
2024/02/07 07:03:30;;;;;;;4.20;2.37;;;11.10;99.90;;;;;;5051674;28;20676;-57
2024/02/07 07:05:58;;;;;;;8.00;2.30;;;11.10;99.90;;;;;;5059939;28;20300;-59
2024/02/07 07:08:25;;;;;;;6.13;2.20;;;11.20;99.90;;;;;;5061975;28;20228;-58
2024/02/07 07:10:51;;;;;;;4.37;2.30;;;11.20;99.90;;;;;;5062857;28;20213;-59
2024/02/07 07:13:18;;;;;;;5.53;2.10;;;11.30;99.90;;;;;;5060513;28;20225;-58
2024/02/07 07:15:45;;;;;;;12.30;2.27;;;11.30;99.90;;;;;;5059121;28;20208;-59
2024/02/07 07:18:13;;;;;;;3.93;2.23;;;11.20;99.90;;;;;;5060041;28;20225;-59
2024/02/07 07:20:40;;;;;;;3.83;1.90;;;11.30;99.90;;;;;;5062933;28;20243;-59
2024/02/07 07:23:07;;;;;;;5.50;2.23;;;11.40;99.90;;;;;;5062198;28;20675;-59
2024/02/07 07:25:34;;;;;;;5.07;2.13;;;11.40;99.90;;;;;;5059160;28;20205;-57
2024/02/07 07:28:01;;;;;;;3.23;2.10;;;11.50;99.90;;;;;;5059951;28;20252;-59
2024/02/07 07:30:27;;;;;;;4.87;2.17;;;11.50;99.90;;;;;;5066214;28;20209;-59
2024/02/07 07:32:54;;;;;;;5.40;2.33;;;11.60;99.90;;;;;;5067092;28;20209;-60
2024/02/07 07:35:22;;;;;;;3.07;1.90;;;11.60;99.90;;;;;;5064013;28;20220;-58
2024/02/07 07:37:48;;;;;;;3.20;2.23;;;11.60;99.90;;;;;;5062388;28;20226;-58
2024/02/07 07:40:15;;;;;;;5.47;1.90;;;11.70;99.90;;;;;;5064403;28;20292;-58
2024/02/07 07:42:42;;;;;;;5.40;2.10;;;11.70;99.90;;;;;;5066075;28;20201;-58
2024/02/07 07:45:09;;;;;;;5.43;2.00;;;11.70;99.90;;;;;;5065198;28;20346;-58
2024/02/07 07:47:39;;;;;;;5.37;2.17;;;11.70;99.90;;;;;;5062471;28;20469;-58
2024/02/07 07:50:07;;;;;;;3.63;1.93;;;11.80;99.90;;;;;;5062355;28;20220;-58
2024/02/07 07:52:35;;;;;;;5.90;2.03;;;11.80;99.90;;;;;;5066038;28;20291;-58
2024/02/07 07:55:02;;;;;;;4.30;2.03;;;11.80;99.90;;;;;;5065700;28;20224;-58
2024/02/07 07:57:28;;;;;;;4.00;1.80;;;11.90;99.90;;;;;;5062992;28;20652;-58
2024/02/07 07:59:55;;;;;;;3.23;2.10;;;11.90;99.90;;;;;;5062250;28;20663;-58
2024/02/07 08:02:22;;;;;;;5.63;2.80;;;12.00;99.90;;;;;;5064391;28;20679;-59
2024/02/07 08:04:49;;;;;;;4.40;2.17;;;12.00;99.90;;;;;;5065760;28;20201;-59
2024/02/07 08:07:15;;;;;;;5.63;2.20;;;12.10;99.90;;;;;;5064062;28;20785;-59
2024/02/07 08:09:44;;;;;;;8.50;2.03;;;12.10;99.90;;;;;;5061882;28;20251;-58
2024/02/07 08:12:10;;;;;;;4.87;2.23;;;12.20;99.90;;;;;;5062762;28;20738;-59
2024/02/07 08:14:37;;;;;;;4.00;1.90;;;12.20;99.90;;;;;;5065659;28;20270;-58
2024/02/07 08:17:04;;;;;;;3.43;2.03;;;12.30;99.90;;;;;;5065638;28;20236;-59
2024/02/07 08:19:30;;;;;;;7.97;2.17;;;12.20;99.90;;;;;;5062046;28;20202;-57
2024/02/07 08:21:57;;;;;;;6.23;2.40;;;12.20;99.90;;;;;;5062389;28;20205;-57
2024/02/07 08:24:25;;;;;;;4.37;1.97;;;12.20;99.90;;;;;;5064285;28;20244;-58
2024/02/07 08:26:53;;;;;;;4.33;2.40;;;12.20;99.90;;;;;;5065634;28;20232;-58
2024/02/07 08:29:19;;;;;;;6.30;2.30;;;12.30;99.90;;;;;;5063261;28;20205;-57
2024/02/07 08:31:46;;;;;;;5.33;2.30;;;12.30;99.90;;;;;;5061971;28;20206;-56
2024/02/07 08:34:13;;;;;;;4.60;2.40;;;12.40;99.90;;;;;;5062403;28;20275;-57
2024/02/07 08:36:40;;;;;;;4.33;2.07;;;12.30;99.90;;;;;;5064840;28;20225;-60
2024/02/07 08:39:07;;;;;;;5.73;2.00;;;12.30;99.90;;;;;;5064908;28;20237;-57
2024/02/07 08:41:33;;;;;;;5.23;2.20;;;12.30;99.90;;;;;;5061801;28;20201;-57
2024/02/07 08:44:01;;;;;;;4.03;2.00;;;12.40;99.90;;;;;;5061897;28;20205;-58
2024/02/07 08:46:28;;;;;;;5.13;1.83;;;12.40;99.90;;;;;;5064272;28;20627;-57
2024/02/07 08:48:55;;;;;;;2.60;1.80;;;12.40;99.90;;;;;;5064580;28;20215;-58
2024/02/07 08:51:21;;;;;;;7.97;2.50;;;12.40;99.90;;;;;;5062691;28;20209;-58
2024/02/07 08:53:48;;;;;;;6.03;2.20;;;12.40;99.90;;;;;;5061411;28;20679;-57
2024/02/07 08:56:15;;;;;;;7.60;1.83;;;12.50;99.90;;;;;;5062295;28;20264;-58
2024/02/07 08:58:41;;;;;;;4.53;2.10;;;12.50;99.90;;;;;;5064585;28;20451;-58
2024/02/07 09:01:09;;;;;;;4.70;1.90;;;12.50;99.90;;;;;;5064246;28;20306;-58
2024/02/07 09:03:36;;;;;;;5.37;2.10;;;12.60;99.90;;;;;;5061188;28;20223;-59
2024/02/07 09:06:03;;;;;;;3.93;1.90;;;12.70;99.90;;;;;;5059224;28;20213;-57
2024/02/07 09:08:30;;;;;;;5.00;1.90;;;12.80;99.90;;;;;;5060843;28;20600;-59
2024/02/07 09:10:58;;;;;;;5.07;2.03;;;12.80;99.90;;;;;;5060832;28;20244;-60
2024/02/07 09:13:25;;;;;;;3.93;2.13;;;12.80;99.90;;;;;;5063123;28;20205;-61
2024/02/07 09:15:51;;;;;;;3.97;2.30;;;12.90;99.90;;;;;;5064567;28;20217;-59
2024/02/07 09:18:20;;;;;;;6.97;1.97;;;13.00;99.90;;;;;;5062213;28;20274;-61
2024/02/07 09:20:46;;;;;;;8.03;1.90;;;13.10;99.90;;;;;;5060485;28;20217;-61
2024/02/07 09:23:13;;;;;;;4.97;2.50;;;13.10;99.90;;;;;;5061290;28;20205;-62
2024/02/07 09:25:39;;;;;;;6.83;1.97;;;13.10;99.90;;;;;;5064297;28;20201;-59
2024/02/07 09:28:06;;;;;;;5.07;2.33;;;13.30;99.90;;;;;;5054967;28;20229;-60
2024/02/07 09:30:33;;;;;;;6.10;2.10;;;13.40;99.90;;;;;;5063901;28;20205;-59
2024/02/07 09:33:00;;;;;;;5.87;2.37;;;13.60;99.90;;;;;;5063828;28;20211;-58
2024/02/07 09:35:28;;;;;;;14.00;2.23;;;13.90;99.90;;;;;;5047647;28;20255;-58
2024/02/07 09:37:56;;;;;;;5.83;2.10;;;14.00;99.90;;;;;;5050512;28;20255;-63
2024/02/07 09:40:23;;;;;;;3.77;2.00;;;14.00;99.90;;;;;;5050532;28;20206;-59
2024/02/07 09:42:52;;;;;;;7.33;2.40;;;14.10;99.90;;;;;;5051932;28;20209;-60
2024/02/07 09:45:20;;;;;;;4.87;1.90;;;14.20;99.90;;;;;;5051748;28;20663;-60
2024/02/07 09:47:54;;;;;;;4.67;2.23;;;14.20;99.90;;;;;;5056297;28;20714;-58
2024/02/07 09:50:21;;;;;;;5.77;2.20;;;14.30;99.90;;;;;;5055209;28;20213;-56
2024/02/07 09:52:54;;;;;;;7.63;2.27;;;14.20;99.90;;;;;;5064011;28;20266;-56
2024/02/07 09:55:21;;;;;;;5.60;2.27;;;14.10;99.90;;;;;;5062103;28;20228;-55
2024/02/07 09:57:49;;;;;;;5.00;2.03;;;14.00;99.90;;;;;;5060010;28;20308;-56
2024/02/07 10:00:16;;;;;;;3.90;2.10;;;14.00;99.90;;;;;;5060999;28;20210;-55
2024/02/07 10:02:49;;;;;;;5.13;2.10;;;14.00;99.90;;;;;;5063808;28;20213;-54
2024/02/07 10:05:19;;;;;;;5.97;2.17;;;13.90;99.90;;;;;;5062856;28;20262;-56
2024/02/07 10:07:49;;;;;;;5.70;2.10;;;13.80;99.90;;;;;;5059932;28;20225;-57
2024/02/07 10:10:17;;;;;;;3.43;2.23;;;13.80;99.90;;;;;;5060870;28;20623;-55
2024/02/07 10:12:44;;;;;;;6.80;2.00;;;13.80;99.90;;;;;;5063496;28;20266;-56
2024/02/07 10:15:11;;;;;;;7.30;1.83;;;13.80;99.90;;;;;;5063510;28;20228;-54
2024/02/07 10:17:38;;;;;;;2.87;1.97;;;13.90;99.90;;;;;;5059808;28;20710;-55
2024/02/07 10:20:09;;;;;;;4.60;1.90;;;14.00;99.90;;;;;;5059891;28;20209;-55
2024/02/07 10:22:40;;;;;;;6.53;2.73;;;14.30;99.90;;;;;;5063814;28;20659;-57
2024/02/07 10:25:11;;;;;;;4.47;2.30;;;14.40;99.90;;;;;;5063362;28;20284;-55
2024/02/07 10:27:39;;;;;;;4.50;2.10;;;14.60;99.90;;;;;;5052247;28;20268;-57
2024/02/07 10:30:08;;;;;;;3.23;1.97;;;14.70;99.90;;;;;;5059279;28;20737;-55
2024/02/07 10:32:35;;;;;;;5.20;2.03;;;14.70;99.90;;;;;;5063715;28;20205;-56
2024/02/07 10:35:03;;;;;;;8.70;1.90;;;14.60;99.90;;;;;;5063386;28;20290;-55
2024/02/07 10:37:39;;;;;;;3.83;1.60;;;14.60;99.90;;;;;;5060418;28;20228;-54
2024/02/07 10:40:07;;;;;;;6.37;1.77;;;14.50;99.90;;;;;;5059880;28;20237;-55
2024/02/07 10:42:33;;;;;;;2.67;1.67;;;14.40;99.90;;;;;;5062836;28;20212;-55
2024/02/07 10:45:07;;;;;;;4.87;2.00;;;14.30;99.90;;;;;;5063238;28;20201;-57
2024/02/07 10:47:34;;;;;;;5.30;1.50;;;14.30;99.90;;;;;;5060279;28;20710;-56
2024/02/07 10:50:02;;;;;;;3.13;1.77;;;14.00;99.90;;;;;;5060131;28;20216;-57
2024/02/07 10:52:30;;;;;;;4.30;1.90;;;14.00;99.90;;;;;;5062443;28;20201;-54
2024/02/07 10:54:57;;;;;;;5.00;1.90;;;14.00;99.90;;;;;;5063318;28;20217;-56
2024/02/07 10:57:28;;;;;;;4.53;2.00;;;14.00;99.90;;;;;;5061203;28;20227;-55
2024/02/07 10:59:56;;;;;;;3.80;1.50;;;14.00;99.90;;;;;;5059860;28;20644;-54
2024/02/07 11:02:25;;;;;;;3.30;1.40;;;14.10;99.90;;;;;;5061561;28;20259;-55
2024/02/07 11:04:52;;;;;;;1.77;1.30;;;14.00;99.90;;;;;;5067246;28;20714;-54
2024/02/07 11:07:20;;;;;;;7.20;2.00;;;13.90;99.90;;;;;;5053569;28;20236;-56
2024/02/07 11:09:48;;;;;;;2.43;1.63;;;13.80;99.90;;;;;;5054981;28;20304;-60
2024/02/07 11:12:15;;;;;;;4.13;1.77;;;13.80;99.90;;;;;;5055188;28;20683;-59
2024/02/07 11:14:45;;;;;;;1.60;1.37;;;13.90;99.90;;;;;;5055165;28;20225;-59
2024/02/07 11:17:13;;;;;;;2.30;1.37;;;14.00;99.90;;;;;;5053260;28;20784;-59
2024/02/07 11:19:42;;;;;;;5.13;1.87;;;13.90;99.90;;;;;;5058896;28;20626;-61
2024/02/07 11:22:16;;;;;;;3.80;1.80;;;14.00;99.90;;;;;;5059203;28;20251;-57
2024/02/07 11:24:45;;;;;;;4.47;1.90;;;14.00;99.90;;;;;;5055958;28;20208;-58
2024/02/07 11:27:13;;;;;;;2.73;1.70;;;14.20;99.90;;;;;;5063424;28;20225;-58
2024/02/07 11:29:42;;;;;;;2.67;1.73;;;14.30;99.90;;;;;;5055431;28;20205;-56
2024/02/07 11:32:10;;;;;;;3.60;1.80;;;14.30;99.90;;;;;;5063791;28;20228;-57
2024/02/07 11:34:38;;;;;;;2.50;1.53;;;14.40;99.90;;;;;;5066511;28;20197;-59
2024/02/07 11:37:09;;;;;;;2.93;1.70;;;14.50;99.90;;;;;;5066853;28;20275;-57
2024/02/07 11:39:39;;;;;;;3.97;1.87;;;14.40;99.90;;;;;;5063065;28;20213;-56
2024/02/07 11:42:12;;;;;;;3.47;1.63;;;14.40;99.90;;;;;;5063142;28;20209;-58
2024/02/07 11:44:49;;;;;;;4.20;1.67;;;14.40;99.90;;;;;;5066848;28;20308;-60
2024/02/07 11:47:23;;;;;;;3.63;1.60;;;14.20;99.90;;;;;;5065843;28;20235;-57
2024/02/07 11:49:55;;;;;;;4.77;1.50;;;14.10;99.90;;;;;;5062836;28;20205;-57
2024/02/07 11:52:28;;;;;;;4.33;1.60;;;14.00;99.90;;;;;;5063092;28;20210;-59
2024/02/07 11:54:54;;;;;;;5.93;2.27;;;13.90;99.90;;;;;;5063603;28;20312;-55
2024/02/07 11:57:22;;;;;;;3.37;1.80;;;13.90;99.90;;;;;;5065167;28;20233;-56
2024/02/07 11:59:49;;;;;;;4.13;1.80;;;13.80;99.90;;;;;;5067015;28;20674;-55
2024/02/07 12:02:17;;;;;;;3.57;1.50;;;13.80;99.90;;;;;;5058726;28;20209;-56
2024/02/07 12:04:44;;;;;;;5.97;1.83;;;13.80;99.90;;;;;;5064160;28;20229;-57
2024/02/07 12:07:12;;;;;;;3.20;1.53;;;13.90;99.90;;;;;;5064097;28;20698;-56
2024/02/07 12:09:39;;;;;;;4.10;2.97;;;13.90;99.90;;;;;;5066649;28;20204;-56
2024/02/07 12:12:12;;;;;;;6.60;4.97;;;13.90;99.90;;;;;;5067584;28;20260;-56
2024/02/07 12:14:38;;;;;;;4.03;3.17;;;14.00;99.90;;;;;;5055724;28;20225;-55
2024/02/07 12:17:05;;;;;;;5.53;3.23;;;14.00;99.90;;;;;;5071891;28;20221;-56
2024/02/07 12:19:32;;;;;;;4.80;2.60;;;14.10;99.90;;;;;;5065433;28;20212;-59
2024/02/07 12:21:59;;;;;;;2.93;2.40;;;14.10;99.90;;;;;;5066550;28;20213;-56
2024/02/07 12:24:25;;;;;;;2.57;1.60;;;14.10;99.90;;;;;;5068690;28;20209;-56
2024/02/07 12:26:53;;;;;;;6.03;3.50;;;14.10;99.90;;;;;;5064311;28;20275;-57
2024/02/07 12:29:21;;;;;;;5.07;3.50;;;14.10;99.90;;;;;;5066488;28;20214;-57
2024/02/07 12:31:47;;;;;;;1.97;1.50;;;14.00;99.90;;;;;;5071761;28;20660;-55
2024/02/07 12:34:14;;;;;;;3.37;1.77;;;14.00;99.90;;;;;;5070832;28;20250;-59
2024/02/07 12:36:41;;;;;;;3.00;1.70;;;13.90;99.90;;;;;;5054464;28;20230;-56
2024/02/07 12:39:08;;;;;;;4.23;1.60;;;13.90;99.90;;;;;;5062614;28;20206;-56
2024/02/07 12:41:34;;;;;;;2.40;1.00;;;13.80;99.90;;;;;;5064905;28;20216;-55
2024/02/07 12:44:02;;;;;;;1.73;1.30;;;13.80;99.90;;;;;;5059191;28;20209;-54
2024/02/07 12:46:29;;;;;;;2.37;0.80;;;13.80;99.90;;;;;;5069886;28;20391;-56
2024/02/07 12:48:59;;;;;;;1.47;1.30;;;13.70;99.90;;;;;;5067654;28;20208;-55
2024/02/07 12:51:26;;;;;;;1.33;0.93;;;13.70;99.90;;;;;;5065509;28;20258;-57
2024/02/07 12:53:53;;;;;;;5.73;3.70;;;13.70;99.90;;;;;;5060557;28;20292;-55
2024/02/07 12:56:21;;;;;;;9.13;3.40;;;13.60;99.90;;;;;;5061673;28;20645;-56
2024/02/07 12:58:48;;;;;;;15.30;6.23;;;13.70;99.90;;;;;;5058171;28;20671;-55
2024/02/07 13:01:21;;;;;;;8.80;3.97;;;13.70;99.90;;;;;;5065051;28;20238;-57
2024/02/07 13:03:47;;;;;;;1.67;1.10;;;13.70;99.90;;;;;;5066546;28;20255;-54
2024/02/07 13:06:15;;;;;;;2.97;1.30;;;13.80;99.90;;;;;;5065234;28;20206;-56
2024/02/07 13:08:41;;;;;;;1.57;1.00;;;13.90;99.90;;;;;;5061225;28;20663;-56
2024/02/07 13:11:09;;;;;;;2.03;0.90;;;14.00;99.90;;;;;;5061354;28;20588;-56
2024/02/07 13:13:35;;;;;;;1.63;0.83;;;13.90;99.90;;;;;;5061632;28;20237;-56
2024/02/07 13:16:02;;;;;;;1.70;0.80;;;13.90;99.90;;;;;;5067574;28;20229;-55
2024/02/07 13:18:30;;;;;;;1.10;1.00;;;13.90;99.90;;;;;;5062952;28;20236;-56
2024/02/07 13:21:01;;;;;;;1.90;0.73;;;13.80;99.90;;;;;;5061145;28;20212;-55
2024/02/07 13:23:33;;;;;;;1.57;1.03;;;13.70;99.90;;;;;;5062968;28;20209;-55
2024/02/07 13:26:00;;;;;;;1.57;0.87;;;13.60;99.90;;;;;;5063832;28;20201;-56
2024/02/07 13:28:26;;;;;;;2.27;1.23;;;13.50;99.90;;;;;;5062617;28;20220;-55
2024/02/07 13:30:53;;;;;;;3.47;2.27;;;13.50;99.90;;;;;;5058498;28;20641;-55
2024/02/07 13:33:20;;;;;;;2.40;1.23;;;13.40;99.90;;;;;;5063718;28;20201;-57
2024/02/07 13:35:48;;;;;;;2.80;1.00;;;13.40;99.90;;;;;;5057407;28;20221;-56
2024/02/07 13:38:15;;;;;;;1.80;1.03;;;13.40;99.90;;;;;;5064649;28;20232;-54
2024/02/07 13:40:41;;;;;;;3.03;1.10;;;13.30;99.90;;;;;;5056543;28;20205;-55
2024/02/07 13:43:08;;;;;;;1.23;0.80;;;13.30;99.90;;;;;;5064442;28;20254;-55
2024/02/07 13:45:35;;;;;;;1.40;1.03;;;13.20;99.90;;;;;;5072795;28;20201;-55
2024/02/07 13:48:01;;;;;;;1.23;1.00;;;13.10;99.90;;;;;;5072455;28;20237;-56
2024/02/07 13:50:28;;;;;;;5.23;1.30;;;13.10;99.90;;;;;;5072801;28;20247;-56